Time;durP1;ratioP1;P1;durP2;ratioP2;P2;SDS_P1;SDS_P2;PMS_P1;PMS_P2;Temp;Humidity;BMP_temperature;BMP_pressure;BME280_temperature;BME280_humidity;BME280_pressure;Samples;Min_cycle;Max_cycle;Signal;HPM_P1;HPM_P2
2023/08/14 00:00:34;;;;;;;;;;;15.90;99.90;;;;;;5135397;27;19915;-45
2023/08/14 00:02:59;;;;;;;;;;;15.90;99.90;;;;;;5135028;27;19907;-47
2023/08/14 00:05:26;;;;;;;;;;;15.80;99.90;;;;;;5134449;27;19947;-44
2023/08/14 00:07:51;;;;;;;;;;;15.80;99.90;;;;;;5135348;27;19914;-43
2023/08/14 00:10:17;;;;;;;;;;;15.80;99.90;;;;;;5134454;27;20010;-46
2023/08/14 00:12:42;;;;;;;;;;;15.80;99.90;;;;;;5135078;27;19981;-44
2023/08/14 00:15:08;;;;;;;;;;;15.80;99.90;;;;;;5135010;27;19918;-43
2023/08/14 00:17:33;;;;;;;;;;;15.70;99.90;;;;;;5133915;27;19965;-48
2023/08/14 00:19:59;;;;;;;;;;;15.70;99.90;;;;;;5134781;27;20274;-45
2023/08/14 00:22:25;;;;;;;;;;;15.60;99.90;;;;;;5135004;27;19907;-43
2023/08/14 00:24:50;;;;;;;;;;;15.70;99.90;;;;;;5134108;27;20331;-44
2023/08/14 00:27:16;;;;;;;;;;;15.70;99.90;;;;;;5134996;27;19954;-45
2023/08/14 00:29:41;;;;;;;;;;;15.70;99.90;;;;;;5134822;27;19915;-47
2023/08/14 00:32:07;;;;;;;;;;;15.70;99.90;;;;;;5133877;27;19938;-44
2023/08/14 00:34:32;;;;;;;;;;;15.70;99.90;;;;;;5134689;27;19907;-43
2023/08/14 00:36:58;;;;;;;;;;;15.70;99.90;;;;;;5134302;27;19911;-44
2023/08/14 00:39:23;;;;;;;;;;;15.60;99.90;;;;;;5133537;27;20011;-45
2023/08/14 00:41:49;;;;;;;;;;;15.60;99.90;;;;;;5134651;27;19907;-44
2023/08/14 00:44:14;;;;;;;;;;;15.50;99.90;;;;;;5134207;27;19919;-44
2023/08/14 00:46:40;;;;;;;;;;;15.50;99.90;;;;;;5133938;27;19943;-44
2023/08/14 00:49:06;;;;;;;;;;;15.50;99.90;;;;;;5134290;27;19915;-44
2023/08/14 00:51:31;;;;;;;;;;;15.40;99.90;;;;;;5116605;27;19916;-43
2023/08/14 00:53:57;;;;;;;;;;;15.40;99.90;;;;;;5113101;28;19918;-43
2023/08/14 00:56:23;;;;;;;;;;;15.40;99.90;;;;;;5124418;27;19915;-45
2023/08/14 00:58:49;;;;;;;;;;;15.30;99.90;;;;;;5148174;27;19997;-46
2023/08/14 01:01:14;;;;;;;;;;;15.40;99.90;;;;;;5154019;27;19993;-42
2023/08/14 01:03:40;;;;;;;;;;;15.30;99.90;;;;;;5154879;27;19963;-43
2023/08/14 01:06:06;;;;;;;;;;;15.40;99.90;;;;;;5154745;27;19907;-44
2023/08/14 01:08:32;;;;;;;;;;;15.40;99.90;;;;;;5154061;27;19907;-44
2023/08/14 01:11:18;;;;;;;;;;;15.40;99.90;;;;;;5154831;27;19910;-43
2023/08/14 01:14:10;;;;;;;;;;;15.40;99.90;;;;;;5153842;27;20393;-44
2023/08/14 01:16:39;;;;;;;;;;;15.50;99.90;;;;;;5149548;27;19914;-43
2023/08/14 01:19:09;;;;;;;;;;;15.40;99.90;;;;;;5154639;27;19914;-44
2023/08/14 01:21:34;;;;;;;;;;;15.40;99.90;;;;;;5153896;27;19975;-44
2023/08/14 01:24:19;;;;;;;;;;;15.40;99.90;;;;;;5154675;27;20311;-42
2023/08/14 01:26:45;;;;;;;;;;;15.50;99.90;;;;;;5141568;27;19915;-43
2023/08/14 01:29:10;;;;;;;;;;;15.40;99.90;;;;;;5133058;27;19915;-43
2023/08/14 01:31:36;;;;;;;;;;;15.40;99.90;;;;;;5133742;27;19915;-43
2023/08/14 01:34:01;;;;;;;;;;;15.50;99.90;;;;;;5133748;28;19911;-45
2023/08/14 01:36:31;;;;;;;;;;;15.40;99.90;;;;;;5133183;28;19907;-42
2023/08/14 01:39:04;;;;;;;;;;;15.40;99.90;;;;;;5133763;28;20382;-44
2023/08/14 01:41:45;;;;;;;;;;;15.40;99.90;;;;;;5134082;28;19911;-44
2023/08/14 01:44:14;;;;;;;;;;;15.30;99.90;;;;;;5123974;28;19919;-43
2023/08/14 01:46:42;;;;;;;;;;;15.40;99.90;;;;;;5113218;28;20028;-44
2023/08/14 01:49:10;;;;;;;;;;;15.30;99.90;;;;;;5133186;27;20411;-44
2023/08/14 01:51:35;;;;;;;;;;;15.30;99.90;;;;;;5137716;27;20013;-45
2023/08/14 01:54:01;;;;;;;;;;;15.30;99.90;;;;;;5137785;27;19954;-43
2023/08/14 01:56:26;;;;;;;;;;;15.30;99.90;;;;;;5126451;27;19980;-44
2023/08/14 01:58:52;;;;;;;;;;;15.30;99.90;;;;;;5117190;28;20392;-44
2023/08/14 02:01:17;;;;;;;;;;;15.30;99.90;;;;;;5117003;28;19912;-42
2023/08/14 02:03:43;;;;;;;;;;;15.30;99.90;;;;;;5117282;27;19912;-43
2023/08/14 02:06:08;;;;;;;;;;;15.30;99.90;;;;;;5116937;28;19987;-45
2023/08/14 02:08:34;;;;;;;;;;;15.40;99.90;;;;;;5116947;28;20358;-45
2023/08/14 02:11:05;;;;;;;;;;;15.30;99.90;;;;;;5116160;28;19954;-43
2023/08/14 02:13:30;;;;;;;;;;;15.40;99.90;;;;;;5116809;28;20358;-44
2023/08/14 02:15:56;;;;;;;;;;;15.40;99.90;;;;;;5116912;28;19914;-44
2023/08/14 02:18:21;;;;;;;;;;;15.40;99.90;;;;;;5115822;28;19930;-43
2023/08/14 02:20:48;;;;;;;;;;;15.30;99.90;;;;;;5116697;28;19950;-43
2023/08/14 02:23:13;;;;;;;;;;;15.30;99.90;;;;;;5116684;28;19991;-48
2023/08/14 02:25:40;;;;;;;;;;;15.40;99.90;;;;;;5115929;28;20002;-46
2023/08/14 02:28:06;;;;;;;;;;;15.40;99.90;;;;;;5116451;28;19953;-44
2023/08/14 02:30:31;;;;;;;;;;;15.30;99.90;;;;;;5116639;28;19908;-42
2023/08/14 02:32:57;;;;;;;;;;;15.30;99.90;;;;;;5115615;28;19916;-44
2023/08/14 02:35:22;;;;;;;;;;;15.30;99.90;;;;;;5116325;27;19911;-45
2023/08/14 02:37:48;;;;;;;;;;;15.30;99.90;;;;;;5137083;27;19911;-44
2023/08/14 02:40:13;;;;;;;;;;;15.40;99.90;;;;;;5136195;27;19908;-44
2023/08/14 02:42:39;;;;;;;;;;;15.30;99.90;;;;;;5136996;27;20126;-43
2023/08/14 02:45:05;;;;;;;;;;;15.30;99.90;;;;;;5143452;27;19980;-46
2023/08/14 02:47:30;;;;;;;;;;;15.40;99.90;;;;;;5156233;27;19914;-45
2023/08/14 02:49:55;;;;;;;;;;;15.30;99.90;;;;;;5156212;27;20426;-45
2023/08/14 02:52:21;;;;;;;;;;;15.30;99.90;;;;;;5155287;27;20049;-43
2023/08/14 02:54:46;;;;;;;;;;;15.30;99.90;;;;;;5156226;27;19911;-44
2023/08/14 02:57:12;;;;;;;;;;;15.30;99.90;;;;;;5156075;27;19907;-46
2023/08/14 02:59:37;;;;;;;;;;;15.30;99.90;;;;;;5155525;27;19911;-43
2023/08/14 03:02:03;;;;;;;;;;;15.20;99.90;;;;;;5155582;27;19907;-43
2023/08/14 03:04:29;;;;;;;;;;;15.20;99.90;;;;;;5144692;27;19918;-44
2023/08/14 03:06:55;;;;;;;;;;;15.10;99.90;;;;;;5134483;27;19911;-44
2023/08/14 03:09:20;;;;;;;;;;;15.20;99.90;;;;;;5135188;28;19908;-44
2023/08/14 03:11:46;;;;;;;;;;;15.10;99.90;;;;;;5135087;28;19923;-44
2023/08/14 03:14:11;;;;;;;;;;;15.20;99.90;;;;;;5134575;28;20338;-43
2023/08/14 03:16:37;;;;;;;;;;;15.20;99.90;;;;;;5135025;28;19915;-43
2023/08/14 03:19:02;;;;;;;;;;;15.20;99.90;;;;;;5134950;28;20369;-42
2023/08/14 03:21:28;;;;;;;;;;;15.20;99.90;;;;;;5134137;28;19930;-43
2023/08/14 03:23:53;;;;;;;;;;;15.20;99.90;;;;;;5135010;28;19907;-44
2023/08/14 03:26:19;;;;;;;;;;;15.20;99.90;;;;;;5134911;28;20007;-43
2023/08/14 03:28:44;;;;;;;;;;;15.20;99.90;;;;;;5134216;28;19946;-44
2023/08/14 03:31:10;;;;;;;;;;;15.20;99.90;;;;;;5134831;28;19914;-44
2023/08/14 03:33:35;;;;;;;;;;;15.20;99.90;;;;;;5136781;27;19980;-43
2023/08/14 03:36:01;;;;;;;;;;;15.20;99.90;;;;;;5154678;27;20383;-44
2023/08/14 03:38:26;;;;;;;;;;;15.20;99.90;;;;;;5155347;27;19907;-44
2023/08/14 03:40:52;;;;;;;;;;;15.20;99.90;;;;;;5155460;27;20250;-44
2023/08/14 03:43:17;;;;;;;;;;;15.20;99.90;;;;;;5090549;27;1792701;-43
2023/08/14 03:45:43;;;;;;;;;;;15.10;99.90;;;;;;5156422;27;19911;-44
2023/08/14 03:48:08;;;;;;;;;;;15.10;99.90;;;;;;5156205;27;19929;-45
2023/08/14 03:50:34;;;;;;;;;;;15.10;99.90;;;;;;5155700;27;20346;-43
2023/08/14 03:52:59;;;;;;;;;;;15.10;99.90;;;;;;5156150;27;19974;-46
2023/08/14 03:55:25;;;;;;;;;;;15.10;99.90;;;;;;5155452;27;19907;-44
2023/08/14 03:57:50;;;;;;;;;;;15.00;99.90;;;;;;5156260;27;19911;-44
2023/08/14 04:00:16;;;;;;;;;;;15.00;99.90;;;;;;5156088;27;19907;-42
2023/08/14 04:02:41;;;;;;;;;;;15.10;99.90;;;;;;5155121;27;20527;-46
2023/08/14 04:05:06;;;;;;;;;;;15.00;99.90;;;;;;5140870;27;19961;-43
2023/08/14 04:07:32;;;;;;;;;;;15.00;99.90;;;;;;5135096;27;19915;-45
2023/08/14 04:09:57;;;;;;;;;;;15.00;99.90;;;;;;5119956;27;19979;-45
2023/08/14 04:12:23;;;;;;;;;;;15.00;99.90;;;;;;5124735;27;20374;-45
2023/08/14 04:14:49;;;;;;;;;;;15.00;99.90;;;;;;5133822;27;19907;-45
2023/08/14 04:17:15;;;;;;;;;;;15.00;99.90;;;;;;5128020;27;19912;-42
2023/08/14 04:19:40;;;;;;;;;;;15.00;99.90;;;;;;5114563;28;19908;-44
2023/08/14 04:22:06;;;;;;;;;;;15.10;99.90;;;;;;5114263;28;20293;-45
2023/08/14 04:24:31;;;;;;;;;;;15.10;99.90;;;;;;5123985;27;19907;-43
2023/08/14 04:26:57;;;;;;;;;;;15.10;99.90;;;;;;5134931;27;19952;-45
2023/08/14 04:29:22;;;;;;;;;;;15.10;99.90;;;;;;5134630;27;20266;-45
2023/08/14 04:31:48;;;;;;;;;;;15.10;99.90;;;;;;5133775;27;19919;-45
2023/08/14 04:34:13;;;;;;;;;;;15.10;99.90;;;;;;5141151;27;20365;-44
2023/08/14 04:36:39;;;;;;;;;;;15.10;99.90;;;;;;5155389;27;19922;-44
2023/08/14 04:39:04;;;;;;;;;;;15.20;99.90;;;;;;5154492;27;19998;-44
2023/08/14 04:41:30;;;;;;;;;;;15.20;99.90;;;;;;5147219;27;19911;-43
2023/08/14 04:43:56;;;;;;;;;;;15.20;99.90;;;;;;5134315;27;19919;-45
2023/08/14 04:46:35;;;;;;;;;;;15.20;99.90;;;;;;5133455;27;20343;-43
2023/08/14 04:49:01;;;;;;;;;;;15.20;99.90;;;;;;5134450;27;19977;-43
2023/08/14 04:51:27;;;;;;;;;;;15.20;99.90;;;;;;5134243;27;19918;-44
2023/08/14 04:53:56;;;;;;;;;;;15.30;99.90;;;;;;5133662;27;19907;-45
2023/08/14 04:56:22;;;;;;;;;;;15.30;99.90;;;;;;5134042;27;19961;-45
2023/08/14 04:58:47;;;;;;;;;;;15.30;99.90;;;;;;5133426;27;19930;-44
2023/08/14 05:01:12;;;;;;;;;;;15.40;99.90;;;;;;5134187;27;20216;-45
2023/08/14 05:03:38;;;;;;;;;;;15.40;99.90;;;;;;5136047;27;19915;-44
2023/08/14 05:06:04;;;;;;;;;;;15.40;99.90;;;;;;5139562;27;19979;-45
2023/08/14 05:08:30;;;;;;;;;;;15.40;99.90;;;;;;5133956;27;19908;-44
2023/08/14 05:10:55;;;;;;;;;;;15.50;99.90;;;;;;5134026;27;19915;-44
2023/08/14 05:13:21;;;;;;;;;;;15.50;99.90;;;;;;5133000;27;20161;-44
2023/08/14 05:15:47;;;;;;;;;;;15.50;99.90;;;;;;5133982;27;19960;-46
2023/08/14 05:18:13;;;;;;;;;;;15.60;99.90;;;;;;5145490;27;20276;-44
2023/08/14 05:20:39;;;;;;;;;;;15.60;99.90;;;;;;5134010;27;19994;-43
2023/08/14 05:23:04;;;;;;;;;;;15.70;99.90;;;;;;5122365;27;19912;-43
2023/08/14 05:25:30;;;;;;;;;;;15.70;99.90;;;;;;5133987;27;19908;-45
2023/08/14 05:27:55;;;;;;;;;;;15.70;99.90;;;;;;5134143;27;19961;-43
2023/08/14 05:30:21;;;;;;;;;;;15.70;99.90;;;;;;5142604;27;19907;-44
2023/08/14 05:32:47;;;;;;;;;;;15.80;99.90;;;;;;5154452;27;20059;-43
2023/08/14 05:35:13;;;;;;;;;;;15.90;99.90;;;;;;5140981;27;19908;-43
2023/08/14 05:37:42;;;;;;;;;;;15.90;99.90;;;;;;5141317;27;19916;-44
2023/08/14 05:40:08;;;;;;;;;;;16.00;99.90;;;;;;5142379;27;20485;-43
2023/08/14 05:42:33;;;;;;;;;;;16.00;99.90;;;;;;5141172;27;20023;-45
2023/08/14 05:44:58;;;;;;;;;;;16.10;99.90;;;;;;5130303;27;20152;-44
2023/08/14 05:47:24;;;;;;;;;;;16.20;99.90;;;;;;5128073;27;19911;-45
2023/08/14 05:49:49;;;;;;;;;;;16.30;99.90;;;;;;5135290;27;20258;-44
2023/08/14 05:52:15;;;;;;;;;;;16.30;99.90;;;;;;5147026;27;19964;-44
2023/08/14 05:54:40;;;;;;;;;;;16.40;99.90;;;;;;5139330;27;20361;-44
2023/08/14 05:57:06;;;;;;;;;;;16.50;99.90;;;;;;5147593;27;19908;-43
2023/08/14 05:59:32;;;;;;;;;;;16.50;99.90;;;;;;5133617;28;19982;-45
2023/08/14 06:01:58;;;;;;;;;;;16.60;99.90;;;;;;5132713;28;20002;-47
2023/08/14 06:04:24;;;;;;;;;;;16.60;99.90;;;;;;5113028;28;19991;-44
2023/08/14 06:06:50;;;;;;;;;;;16.70;99.90;;;;;;5112758;28;19943;-44
2023/08/14 06:09:17;;;;;;;;;;;16.80;99.90;;;;;;5147220;27;20040;-45
2023/08/14 06:11:43;;;;;;;;;;;16.80;99.90;;;;;;5121798;27;19919;-44
2023/08/14 06:14:08;;;;;;;;;;;16.80;99.90;;;;;;5121212;28;19998;-44
2023/08/14 06:16:34;;;;;;;;;;;17.00;99.90;;;;;;5110512;28;19998;-43
2023/08/14 06:18:59;;;;;;;;;;;17.00;99.90;;;;;;5137304;27;20361;-48
2023/08/14 06:21:25;;;;;;;;;;;17.10;99.90;;;;;;5144906;27;20306;-45
2023/08/14 06:23:50;;;;;;;;;;;17.20;99.90;;;;;;5139741;27;19907;-45
2023/08/14 06:26:16;;;;;;;;;;;17.30;99.90;;;;;;5144828;27;19911;-44
2023/08/14 06:28:41;;;;;;;;;;;17.30;99.90;;;;;;5143743;27;19907;-43
2023/08/14 06:31:07;;;;;;;;;;;17.40;99.90;;;;;;5132668;27;19916;-44
2023/08/14 06:33:32;;;;;;;;;;;17.40;99.90;;;;;;5120666;27;19927;-44
2023/08/14 06:35:58;;;;;;;;;;;17.50;99.90;;;;;;5113968;28;20006;-44
2023/08/14 06:38:23;;;;;;;;;;;17.50;99.90;;;;;;5119861;27;19912;-46
2023/08/14 06:40:49;;;;;;;;;;;17.60;99.90;;;;;;5136779;27;20347;-44
2023/08/14 06:43:14;;;;;;;;;;;17.60;99.90;;;;;;5136426;27;19914;-44
2023/08/14 06:45:40;;;;;;;;;;;17.60;99.90;;;;;;5129247;27;19919;-45
2023/08/14 06:48:05;;;;;;;;;;;17.70;99.90;;;;;;5131457;27;20001;-44
2023/08/14 06:50:31;;;;;;;;;;;17.70;99.90;;;;;;5136735;27;20327;-45
2023/08/14 06:52:56;;;;;;;;;;;17.80;99.90;;;;;;5126922;27;20014;-45
2023/08/14 06:55:22;;;;;;;;;;;17.80;99.90;;;;;;5123764;27;20381;-45
2023/08/14 06:57:47;;;;;;;;;;;17.80;99.90;;;;;;5115862;28;19916;-43
2023/08/14 07:00:14;;;;;;;;;;;17.90;99.90;;;;;;5115056;28;20256;-43
2023/08/14 07:02:39;;;;;;;;;;;17.90;99.90;;;;;;5124242;27;19916;-45
2023/08/14 07:05:05;;;;;;;;;;;17.90;99.90;;;;;;5119421;27;19934;-44
2023/08/14 07:07:30;;;;;;;;;;;17.90;99.90;;;;;;5115180;28;19908;-45
2023/08/14 07:09:56;;;;;;;;;;;18.00;99.90;;;;;;5115832;28;20439;-44
2023/08/14 07:12:22;;;;;;;;;;;18.00;99.90;;;;;;5138361;27;19926;-43
2023/08/14 07:14:48;;;;;;;;;;;18.00;99.90;;;;;;5136149;27;19908;-44
2023/08/14 07:17:13;;;;;;;;;;;18.10;99.90;;;;;;5130357;27;19918;-46
2023/08/14 07:19:39;;;;;;;;;;;18.10;99.90;;;;;;5150396;27;19966;-43
2023/08/14 07:22:04;;;;;;;;;;;18.10;99.90;;;;;;5143140;27;20281;-44
2023/08/14 07:24:31;;;;;;;;;;;18.10;99.90;;;;;;5135176;27;19922;-44
2023/08/14 07:26:57;;;;;;;;;;;18.10;99.90;;;;;;5134634;27;19908;-47
2023/08/14 07:29:23;;;;;;;;;;;18.20;99.90;;;;;;5136376;27;19908;-45
2023/08/14 07:31:48;;;;;;;;;;;18.20;99.90;;;;;;5136285;27;19926;-45
2023/08/14 07:34:14;;;;;;;;;;;18.30;99.90;;;;;;5135790;27;19953;-46
2023/08/14 07:36:39;;;;;;;;;;;18.30;99.90;;;;;;5136318;27;20406;-44
2023/08/14 07:39:05;;;;;;;;;;;18.40;99.90;;;;;;5136401;27;20351;-45
2023/08/14 07:41:30;;;;;;;;;;;18.50;99.90;;;;;;5135962;27;19907;-46
2023/08/14 07:43:56;;;;;;;;;;;18.60;99.90;;;;;;5135998;27;19919;-44
2023/08/14 07:46:21;;;;;;;;;;;18.80;99.90;;;;;;5137041;27;19965;-46
2023/08/14 07:48:47;;;;;;;;;;;18.90;99.90;;;;;;5134821;27;20373;-44
2023/08/14 07:51:13;;;;;;;;;;;19.10;99.90;;;;;;5137158;27;19969;-48
2023/08/14 07:53:38;;;;;;;;;;;19.20;99.90;;;;;;5136056;27;19987;-44
2023/08/14 07:56:04;;;;;;;;;;;19.40;99.90;;;;;;5135329;27;20358;-45
2023/08/14 07:58:29;;;;;;;;;;;19.60;99.90;;;;;;5135749;27;20479;-51
2023/08/14 08:00:55;;;;;;;;;;;19.70;99.90;;;;;;5130922;27;19918;-46
2023/08/14 08:03:21;;;;;;;;;;;19.80;99.90;;;;;;5133906;27;20358;-46
2023/08/14 08:05:47;;;;;;;;;;;19.90;99.90;;;;;;5134289;27;19918;-45
2023/08/14 08:08:12;;;;;;;;;;;19.90;99.90;;;;;;5124311;27;19926;-45
2023/08/14 08:10:38;;;;;;;;;;;20.00;99.90;;;;;;5114573;28;19908;-47
2023/08/14 08:13:03;;;;;;;;;;;20.10;99.90;;;;;;5125119;27;19922;-44
2023/08/14 08:15:29;;;;;;;;;;;20.20;99.90;;;;;;5136178;27;19915;-46
2023/08/14 08:17:55;;;;;;;;;;;20.40;99.90;;;;;;5134906;27;20293;-48
2023/08/14 08:20:20;;;;;;;;;;;20.50;99.90;;;;;;5135399;27;19927;-46
2023/08/14 08:22:46;;;;;;;;;;;20.50;99.90;;;;;;5134928;27;19957;-44
2023/08/14 08:25:11;;;;;;;;;;;20.50;99.90;;;;;;5135254;27;19993;-46
2023/08/14 08:27:37;;;;;;;;;;;20.50;99.90;;;;;;5135378;27;19950;-46
2023/08/14 08:30:02;;;;;;;;;;;20.50;99.90;;;;;;5134602;27;19908;-44
2023/08/14 08:32:28;;;;;;;;;;;20.60;99.90;;;;;;5135203;27;20388;-44
2023/08/14 08:34:54;;;;;;;;;;;20.60;99.90;;;;;;5116576;27;19952;-45
2023/08/14 08:37:20;;;;;;;;;;;20.60;99.90;;;;;;5134709;27;20011;-44
2023/08/14 08:39:45;;;;;;;;;;;20.60;99.90;;;;;;5135141;27;20010;-44
2023/08/14 08:42:11;;;;;;;;;;;20.70;99.90;;;;;;5135067;27;20319;-48
2023/08/14 08:44:38;;;;;;;;;;;20.70;99.90;;;;;;5134262;27;19927;-44
2023/08/14 08:47:10;;;;;;;;;;;20.80;99.90;;;;;;5134736;27;20377;-44
2023/08/14 08:49:36;;;;;;;;;;;20.80;99.90;;;;;;5134923;27;19928;-46
2023/08/14 08:52:02;;;;;;;;;;;20.90;99.90;;;;;;5126305;27;20430;-43
2023/08/14 08:54:28;;;;;;;;;;;21.00;99.90;;;;;;5114521;28;19908;-44
2023/08/14 08:56:55;;;;;;;;;;;21.10;99.90;;;;;;5114421;28;19931;-47
2023/08/14 08:59:21;;;;;;;;;;;21.20;99.90;;;;;;5113586;28;19911;-45
2023/08/14 09:01:47;;;;;;;;;;;21.30;99.90;;;;;;5129481;27;19908;-44
2023/08/14 09:04:13;;;;;;;;;;;21.40;99.90;;;;;;5113982;28;20346;-47
2023/08/14 09:06:39;;;;;;;;;;;21.60;99.90;;;;;;5113692;28;19916;-46
2023/08/14 09:09:06;;;;;;;;;;;21.70;99.90;;;;;;5114046;28;19961;-44
2023/08/14 09:11:31;;;;;;;;;;;21.80;99.90;;;;;;5114159;28;19912;-48
2023/08/14 09:13:57;;;;;;;;;;;21.90;99.90;;;;;;5113654;28;20292;-43
2023/08/14 09:16:24;;;;;;;;;;;22.00;99.90;;;;;;5124936;27;19918;-44
2023/08/14 09:18:49;;;;;;;;;;;21.90;99.90;;;;;;5122254;27;19969;-48
2023/08/14 09:21:15;;;;;;;;;;;21.90;99.90;;;;;;5113340;27;19912;-46
2023/08/14 09:23:42;;;;;;;;;;;21.90;99.90;;;;;;5116151;27;20002;-45
2023/08/14 09:26:07;;;;;;;;;;;22.00;99.90;;;;;;5113372;28;19915;-46
2023/08/14 09:28:34;;;;;;;;;;;22.10;99.90;;;;;;5114090;27;19908;-45
2023/08/14 09:31:06;;;;;;;;;;;22.10;99.90;;;;;;5127249;27;19920;-45
2023/08/14 09:33:32;;;;;;;;;;;22.20;99.90;;;;;;5133787;27;20323;-46
2023/08/14 09:35:58;;;;;;;;;;;22.30;99.90;;;;;;5134195;27;20334;-44
2023/08/14 09:38:24;;;;;;;;;;;22.20;99.90;;;;;;5121779;28;19912;-45
2023/08/14 09:40:54;;;;;;;;;;;22.20;99.90;;;;;;5113278;28;19911;-44
2023/08/14 09:43:20;;;;;;;;;;;22.30;99.90;;;;;;5123417;28;19915;-48
2023/08/14 09:45:46;;;;;;;;;;;22.40;99.90;;;;;;5133977;27;19918;-45
2023/08/14 09:48:11;;;;;;;;;;;22.40;99.90;;;;;;5119331;28;19922;-45
2023/08/14 09:50:37;;;;;;;;;;;22.50;99.90;;;;;;5113542;28;19911;-45
2023/08/14 09:53:03;;;;;;;;;;;22.50;99.90;;;;;;5112811;28;20439;-45
2023/08/14 09:55:28;;;;;;;;;;;22.60;99.90;;;;;;5113069;28;20401;-45
2023/08/14 09:57:57;;;;;;;;;;;22.70;99.90;;;;;;5126027;28;19915;-45
2023/08/14 10:00:25;;;;;;;;;;;22.80;99.90;;;;;;5127383;28;19962;-48
2023/08/14 10:02:51;;;;;;;;;;;22.80;99.90;;;;;;5130645;28;20398;-46
2023/08/14 10:05:18;;;;;;;;;;;22.90;99.90;;;;;;5114967;28;20018;-45
2023/08/14 10:07:43;;;;;;;;;;;23.00;99.90;;;;;;5128913;28;19911;-47
2023/08/14 10:10:11;;;;;;;;;;;23.10;99.90;;;;;;5133365;27;19964;-45
2023/08/14 10:12:39;;;;;;;;;;;23.10;99.90;;;;;;5137311;27;20010;-43
2023/08/14 10:15:11;;;;;;;;;;;23.10;99.90;;;;;;5136416;27;19912;-45
2023/08/14 10:17:40;;;;;;;;;;;23.10;99.90;;;;;;5133570;27;19911;-45
2023/08/14 10:20:07;;;;;;;;;;;23.20;99.90;;;;;;5121161;27;19912;-45
2023/08/14 10:22:33;;;;;;;;;;;23.30;99.90;;;;;;5121189;27;19965;-44
2023/08/14 10:25:01;;;;;;;;;;;23.50;99.90;;;;;;5128093;27;20108;-45
2023/08/14 10:27:27;;;;;;;;;;;23.50;99.90;;;;;;5126750;27;19978;-45
2023/08/14 10:29:53;;;;;;;;;;;23.60;99.90;;;;;;5124176;27;20370;-45
2023/08/14 10:32:19;;;;;;;;;;;23.70;99.90;;;;;;5119192;27;19923;-44
2023/08/14 10:34:44;;;;;;;;;;;23.70;99.90;;;;;;5128089;27;19962;-46
2023/08/14 10:37:33;;;;;;;;;;;23.70;99.90;;;;;;5122677;27;19912;-43
2023/08/14 10:40:18;;;;;;;;;;;23.80;99.90;;;;;;5126002;27;20002;-44
2023/08/14 10:42:50;;;;;;;;;;;23.90;99.90;;;;;;5122772;27;19990;-45
2023/08/14 10:45:19;;;;;;;;;;;24.00;99.90;;;;;;5129816;27;19919;-49
2023/08/14 10:47:44;;;;;;;;;;;24.00;99.90;;;;;;5139749;27;19964;-45
2023/08/14 10:50:13;;;;;;;;;;;24.10;99.90;;;;;;5134120;27;19911;-47
2023/08/14 10:52:39;;;;;;;;;;;24.20;99.90;;;;;;5134327;27;19969;-45
2023/08/14 10:55:13;;;;;;;;;;;24.30;99.90;;;;;;5118677;27;19939;-45
2023/08/14 10:57:38;;;;;;;;;;;24.40;99.90;;;;;;5116312;28;20484;-43
2023/08/14 11:00:17;;;;;;;;;;;24.30;99.90;;;;;;5126543;27;19994;-44
2023/08/14 11:02:43;;;;;;;;;;;24.30;99.90;;;;;;5137225;27;19907;-45
2023/08/14 11:05:12;;;;;;;;;;;24.40;99.90;;;;;;5136538;27;19967;-45
2023/08/14 11:07:38;;;;;;;;;;;24.40;99.90;;;;;;5126810;27;19911;-48
2023/08/14 11:10:04;;;;;;;;;;;24.40;99.90;;;;;;5157754;27;19914;-44
2023/08/14 11:12:30;;;;;;;;;;;24.50;99.90;;;;;;5157321;27;19919;-45
2023/08/14 11:14:56;;;;;;;;;;;24.50;99.90;;;;;;5157608;27;20015;-47
2023/08/14 11:17:22;;;;;;;;;;;24.50;99.90;;;;;;5157739;27;19911;-50
2023/08/14 11:19:49;;;;;;;;;;;24.50;99.90;;;;;;5156713;27;19919;-45
2023/08/14 11:22:14;;;;;;;;;;;24.70;99.90;;;;;;5156974;27;19913;-49
2023/08/14 11:24:41;;;;;;;;;;;24.80;99.90;;;;;;5157593;27;19911;-43
2023/08/14 11:27:07;;;;;;;;;;;24.90;99.90;;;;;;5156350;27;19960;-45
2023/08/14 11:29:33;;;;;;;;;;;25.10;99.90;;;;;;5157589;27;19915;-43
2023/08/14 11:32:02;;;;;;;;;;;25.10;99.90;;;;;;5153157;27;21568;-45
2023/08/14 11:34:28;;;;;;;;;;;25.20;99.90;;;;;;5144149;27;19960;-45
2023/08/14 11:36:55;;;;;;;;;;;25.20;99.90;;;;;;5133616;27;19907;-46
2023/08/14 11:39:20;;;;;;;;;;;25.20;99.90;;;;;;5146462;27;20223;-44
2023/08/14 11:41:46;;;;;;;;;;;25.20;99.90;;;;;;5135994;27;19907;-45
2023/08/14 11:44:11;;;;;;;;;;;25.20;99.90;;;;;;5135626;27;19924;-44
2023/08/14 11:46:38;;;;;;;;;;;25.10;99.90;;;;;;5134867;27;20282;-46
2023/08/14 11:49:04;;;;;;;;;;;25.20;99.90;;;;;;5147382;27;19911;-47
2023/08/14 11:51:29;;;;;;;;;;;25.20;99.90;;;;;;5135849;27;19915;-44
2023/08/14 11:53:55;;;;;;;;;;;25.30;99.90;;;;;;5150744;27;19923;-44
2023/08/14 11:56:21;;;;;;;;;;;25.30;99.90;;;;;;5156493;27;19907;-43
2023/08/14 11:58:46;;;;;;;;;;;25.40;99.90;;;;;;5157128;27;19914;-50
2023/08/14 12:01:12;;;;;;;;;;;25.40;99.90;;;;;;5139623;27;20010;-44
2023/08/14 12:03:38;;;;;;;;;;;25.40;99.90;;;;;;5147885;27;20010;-46
2023/08/14 12:06:04;;;;;;;;;;;25.40;99.90;;;;;;5155450;27;19907;-46
2023/08/14 12:08:29;;;;;;;;;;;25.30;99.90;;;;;;5135866;27;19915;-44
2023/08/14 12:10:55;;;;;;;;;;;25.30;99.90;;;;;;5135736;27;19964;-45
2023/08/14 12:13:21;;;;;;;;;;;25.40;99.90;;;;;;5143788;27;20005;-44
2023/08/14 12:15:47;;;;;;;;;;;25.60;99.90;;;;;;5153041;27;19911;-44
2023/08/14 12:18:12;;;;;;;;;;;25.70;99.90;;;;;;5114203;28;19907;-46
2023/08/14 12:20:38;;;;;;;;;;;25.80;99.90;;;;;;5124044;27;19907;-44
2023/08/14 12:23:13;;;;;;;;;;;25.90;99.90;;;;;;5138226;27;20277;-46
2023/08/14 12:25:40;;;;;;;;;;;25.90;99.90;;;;;;5153659;27;19908;-44
2023/08/14 12:28:06;;;;;;;;;;;25.80;99.90;;;;;;5150649;27;20262;-46
2023/08/14 12:30:31;;;;;;;;;;;25.70;99.90;;;;;;5117204;27;19933;-45
2023/08/14 12:32:57;;;;;;;;;;;25.70;99.90;;;;;;5130355;27;19930;-45
2023/08/14 12:35:22;;;;;;;;;;;25.60;99.90;;;;;;5154706;27;19930;-50
2023/08/14 12:37:48;;;;;;;;;;;25.50;99.90;;;;;;5155070;27;19907;-47
2023/08/14 12:40:13;;;;;;;;;;;25.70;99.90;;;;;;5155664;27;19907;-47
2023/08/14 12:42:39;;;;;;;;;;;25.80;99.90;;;;;;5146992;27;20346;-45
2023/08/14 12:45:06;;;;;;;;;;;25.90;99.90;;;;;;5154126;27;19926;-46
2023/08/14 12:47:32;;;;;;;;;;;25.90;99.90;;;;;;5148909;27;19949;-46
2023/08/14 12:49:57;;;;;;;;;;;25.80;99.90;;;;;;5132566;27;20305;-46
2023/08/14 12:52:23;;;;;;;;;;;25.70;99.90;;;;;;5117864;27;19968;-48
2023/08/14 12:54:48;;;;;;;;;;;25.60;99.90;;;;;;5147030;27;19912;-49
2023/08/14 12:57:14;;;;;;;;;;;25.50;99.90;;;;;;5113788;28;19964;-45
2023/08/14 12:59:39;;;;;;;;;;;25.80;99.90;;;;;;5117247;27;20373;-45
2023/08/14 13:02:05;;;;;;;;;;;26.20;99.90;;;;;;5122515;27;19916;-44
2023/08/14 13:04:30;;;;;;;;;;;26.40;99.90;;;;;;5130917;27;19994;-45
2023/08/14 13:06:57;;;;;;;;;;;26.40;99.90;;;;;;5125473;27;19908;-45
2023/08/14 13:09:22;;;;;;;;;;;26.60;99.90;;;;;;5132454;27;20403;-49
2023/08/14 13:11:48;;;;;;;;;;;26.50;99.90;;;;;;5141066;27;19912;-47
2023/08/14 13:14:13;;;;;;;;;;;26.30;99.90;;;;;;5134349;27;19912;-44
2023/08/14 13:16:39;;;;;;;;;;;26.10;99.90;;;;;;5134282;27;19972;-50
2023/08/14 13:19:05;;;;;;;;;;;26.00;99.90;;;;;;5133816;27;19907;-47
2023/08/14 13:21:30;;;;;;;;;;;26.00;99.90;;;;;;5134369;27;19912;-47
2023/08/14 13:23:56;;;;;;;;;;;26.40;99.90;;;;;;5155242;27;19993;-45
2023/08/14 13:26:23;;;;;;;;;;;26.90;99.90;;;;;;5136062;27;19914;-45
2023/08/14 13:28:48;;;;;;;;;;;27.10;99.90;;;;;;5155187;27;19908;-45
2023/08/14 13:31:14;;;;;;;;;;;27.30;99.90;;;;;;5147274;27;19918;-46
2023/08/14 13:33:40;;;;;;;;;;;27.80;99.90;;;;;;5154244;27;19923;-47
2023/08/14 13:36:05;;;;;;;;;;;28.10;99.90;;;;;;5155126;27;19951;-46
2023/08/14 13:38:31;;;;;;;;;;;27.90;99.90;;;;;;5152379;27;19907;-45
2023/08/14 13:40:57;;;;;;;;;;;27.60;99.90;;;;;;5143453;27;19911;-45
2023/08/14 13:43:22;;;;;;;;;;;27.30;99.90;;;;;;5154451;27;20281;-46
2023/08/14 13:45:48;;;;;;;;;;;27.20;99.90;;;;;;5158029;27;19907;-46
2023/08/14 13:48:13;;;;;;;;;;;27.70;99.90;;;;;;5158710;27;19914;-47
2023/08/14 13:50:39;;;;;;;;;;;28.30;99.90;;;;;;5151604;27;19916;-48
2023/08/14 13:53:06;;;;;;;;;;;28.70;99.90;;;;;;5138404;27;19966;-49
2023/08/14 13:55:32;;;;;;;;;;;28.80;99.90;;;;;;5137967;27;19914;-46
2023/08/14 13:57:58;;;;;;;;;;;28.50;99.90;;;;;;5138265;27;20360;-46
2023/08/14 14:00:24;;;;;;;;;;;28.10;99.90;;;;;;5141728;27;20006;-48
2023/08/14 14:02:50;;;;;;;;;;;28.00;99.90;;;;;;5158813;27;19914;-50
2023/08/14 14:05:15;;;;;;;;;;;28.10;99.90;;;;;;5158826;27;19920;-45
2023/08/14 14:07:41;;;;;;;;;;;27.90;99.90;;;;;;5158194;27;20311;-49
2023/08/14 14:10:07;;;;;;;;;;;27.60;99.90;;;;;;5156446;27;19907;-46